sensor_id;sensor_type;location;lat;lon;timestamp;pressure;altitude;pressure_sealevel;temperature;humidity
75998;BME280;64685;48.762;44.822;2024-03-23T03:38:01;101400.47;;;3.38;100.00
75998;BME280;64685;48.762;44.822;2024-03-23T03:43:50;101418.47;;;3.94;100.00
75998;BME280;64685;48.762;44.822;2024-03-23T03:49:48;101408.47;;;4.19;100.00
75998;BME280;64685;48.762;44.822;2024-03-23T03:55:12;101404.47;;;4.42;100.00
75998;BME280;64685;48.762;44.822;2024-03-23T04:00:20;101419.81;;;5.16;100.00
75998;BME280;64685;48.762;44.822;2024-03-23T04:05:26;101407.56;;;5.73;100.00
75998;BME280;64685;48.762;44.822;2024-03-23T04:10:31;101405.13;;;6.32;100.00
75998;BME280;64685;48.762;44.822;2024-03-23T04:15:33;101417.59;;;6.24;100.00
75998;BME280;64685;48.762;44.822;2024-03-23T04:20:38;101397.09;;;5.95;100.00
75998;BME280;64685;48.762;44.822;2024-03-23T04:25:41;101407.63;;;6.08;100.00
75998;BME280;64685;48.762;44.822;2024-03-23T04:30:44;101409.56;;;6.18;100.00
75998;BME280;64685;48.762;44.822;2024-03-23T04:35:49;101429.72;;;6.93;100.00
75998;BME280;64685;48.762;44.822;2024-03-23T04:40:59;101425.34;;;7.94;100.00
75998;BME280;64685;48.762;44.822;2024-03-23T04:46:01;101432.97;;;8.17;100.00
75998;BME280;64685;48.762;44.822;2024-03-23T04:51:04;101435.22;;;8.82;100.00
75998;BME280;64685;48.762;44.822;2024-03-23T04:56:07;101436.34;;;9.52;100.00
75998;BME280;64685;48.762;44.822;2024-03-23T05:01:10;101432.06;;;10.52;100.00
75998;BME280;64685;48.762;44.822;2024-03-23T05:06:13;101442.13;;;11.12;100.00
75998;BME280;64685;48.762;44.822;2024-03-23T05:11:15;101435.25;;;12.56;100.00
75998;BME280;64685;48.762;44.822;2024-03-23T05:16:18;101435.94;;;13.36;100.00
75998;BME280;64685;48.762;44.822;2024-03-23T05:21:20;101438.97;;;14.21;100.00
75998;BME280;64685;48.762;44.822;2024-03-23T05:26:22;101449.31;;;14.97;100.00
75998;BME280;64685;48.762;44.822;2024-03-23T05:31:26;101458.66;;;16.22;93.79
75998;BME280;64685;48.762;44.822;2024-03-23T05:36:29;101458.59;;;16.92;82.75
75998;BME280;64685;48.762;44.822;2024-03-23T05:41:31;101460.41;;;17.20;78.87
75998;BME280;64685;48.762;44.822;2024-03-23T05:46:34;101456.88;;;17.68;73.03
75998;BME280;64685;48.762;44.822;2024-03-23T05:51:37;101464.75;;;18.22;68.90
75998;BME280;64685;48.762;44.822;2024-03-23T05:56:40;101480.59;;;18.90;66.29
75998;BME280;64685;48.762;44.822;2024-03-23T06:01:42;101463.84;;;19.13;61.75
75998;BME280;64685;48.762;44.822;2024-03-23T06:06:45;101463.03;;;18.85;56.96
75998;BME280;64685;48.762;44.822;2024-03-23T06:11:48;101462.53;;;19.22;54.07
75998;BME280;64685;48.762;44.822;2024-03-23T06:16:51;101460.09;;;19.83;51.94
75998;BME280;64685;48.762;44.822;2024-03-23T06:21:56;101449.19;;;19.85;47.70
75998;BME280;64685;48.762;44.822;2024-03-23T06:26:58;101459.72;;;20.69;47.03
75998;BME280;64685;48.762;44.822;2024-03-23T06:32:01;101465.19;;;20.43;46.55
75998;BME280;64685;48.762;44.822;2024-03-23T06:37:03;101454.59;;;20.93;44.52
75998;BME280;64685;48.762;44.822;2024-03-23T06:42:05;101434.56;;;21.28;43.40
75998;BME280;64685;48.762;44.822;2024-03-23T06:47:08;101436.84;;;21.64;41.14
75998;BME280;64685;48.762;44.822;2024-03-23T06:52:10;101440.66;;;22.49;39.66
75998;BME280;64685;48.762;44.822;2024-03-23T06:57:12;101440.91;;;22.67;39.03
75998;BME280;64685;48.762;44.822;2024-03-23T07:02:15;101448.75;;;22.44;39.44
75998;BME280;64685;48.762;44.822;2024-03-23T07:07:17;101435.84;;;22.83;38.25
75998;BME280;64685;48.762;44.822;2024-03-23T07:12:20;101420.00;;;23.18;38.63
75998;BME280;64685;48.762;44.822;2024-03-23T07:17:23;101429.53;;;23.00;36.98
75998;BME280;64685;48.762;44.822;2024-03-23T07:22:25;101422.72;;;23.11;36.46
75998;BME280;64685;48.762;44.822;2024-03-23T07:27:28;101415.81;;;23.89;35.10
75998;BME280;64685;48.762;44.822;2024-03-23T07:32:31;101415.94;;;23.63;35.74
75998;BME280;64685;48.762;44.822;2024-03-23T07:37:33;101412.91;;;22.43;35.97
75998;BME280;64685;48.762;44.822;2024-03-23T07:42:35;101397.69;;;21.54;35.44
75998;BME280;64685;48.762;44.822;2024-03-23T07:47:38;101390.88;;;23.39;34.21
75998;BME280;64685;48.762;44.822;2024-03-23T07:52:40;101390.28;;;23.63;33.61
75998;BME280;64685;48.762;44.822;2024-03-23T07:57:42;101389.13;;;24.28;33.47
75998;BME280;64685;48.762;44.822;2024-03-23T08:02:44;101383.13;;;24.47;33.72
75998;BME280;64685;48.762;44.822;2024-03-23T08:07:50;101377.97;;;24.02;32.74
75998;BME280;64685;48.762;44.822;2024-03-23T08:12:53;101373.50;;;22.78;34.33
75998;BME280;64685;48.762;44.822;2024-03-23T08:17:55;101368.47;;;22.05;36.08
75998;BME280;64685;48.762;44.822;2024-03-23T08:22:57;101367.63;;;23.37;34.54
75998;BME280;64685;48.762;44.822;2024-03-23T08:27:59;101365.09;;;22.26;36.14
75998;BME280;64685;48.762;44.822;2024-03-23T08:33:02;101353.66;;;21.93;36.20
75998;BME280;64685;48.762;44.822;2024-03-23T08:38:07;101373.53;;;20.80;38.53
75998;BME280;64685;48.762;44.822;2024-03-23T08:43:09;101365.72;;;20.93;36.74
75998;BME280;64685;48.762;44.822;2024-03-23T08:48:12;101355.91;;;20.90;38.34
75998;BME280;64685;48.762;44.822;2024-03-23T08:53:14;101343.88;;;21.19;37.41
75998;BME280;64685;48.762;44.822;2024-03-23T08:58:17;101338.41;;;21.56;36.67
75998;BME280;64685;48.762;44.822;2024-03-23T09:03:22;101328.34;;;20.91;37.88
75998;BME280;64685;48.762;44.822;2024-03-23T09:08:26;101318.50;;;21.30;36.77
75998;BME280;64685;48.762;44.822;2024-03-23T09:13:28;101320.38;;;21.97;37.34
75998;BME280;64685;48.762;44.822;2024-03-23T09:18:32;101299.47;;;22.15;35.51
75998;BME280;64685;48.762;44.822;2024-03-23T09:23:34;101315.47;;;22.93;34.88
75998;BME280;64685;48.762;44.822;2024-03-23T09:28:37;101297.44;;;22.78;35.23
75998;BME280;64685;48.762;44.822;2024-03-23T09:33:41;101301.06;;;23.66;33.75
75998;BME280;64685;48.762;44.822;2024-03-23T09:38:45;101280.38;;;22.16;34.67
75998;BME280;64685;48.762;44.822;2024-03-23T09:43:47;101289.56;;;22.02;34.72
75998;BME280;64685;48.762;44.822;2024-03-23T09:48:51;101289.53;;;21.73;35.40
75998;BME280;64685;48.762;44.822;2024-03-23T09:53:53;101274.72;;;21.12;36.56
75998;BME280;64685;48.762;44.822;2024-03-23T09:59:02;101270.81;;;19.76;38.69
75998;BME280;64685;48.762;44.822;2024-03-23T10:04:05;101266.94;;;20.03;38.77
75998;BME280;64685;48.762;44.822;2024-03-23T10:09:17;101259.53;;;21.23;37.44
75998;BME280;64685;48.762;44.822;2024-03-23T10:14:29;101247.22;;;21.68;37.11
75998;BME280;64685;48.762;44.822;2024-03-23T10:19:32;101252.13;;;23.10;35.42
75998;BME280;64685;48.762;44.822;2024-03-23T10:24:34;101250.91;;;22.31;35.92
75998;BME280;64685;48.762;44.822;2024-03-23T10:29:36;101244.75;;;21.96;35.18
75998;BME280;64685;48.762;44.822;2024-03-23T10:34:39;101231.47;;;22.40;35.17
75998;BME280;64685;48.762;44.822;2024-03-23T10:39:41;101238.97;;;22.95;34.55
75998;BME280;64685;48.762;44.822;2024-03-23T10:44:43;101239.78;;;20.21;37.75
75998;BME280;64685;48.762;44.822;2024-03-23T10:49:45;101221.13;;;18.98;39.77
75998;BME280;64685;48.762;44.822;2024-03-23T10:54:51;101218.84;;;20.29;38.29
75998;BME280;64685;48.762;44.822;2024-03-23T10:59:54;101210.25;;;20.67;37.78
75998;BME280;64685;48.762;44.822;2024-03-23T11:04:57;101219.34;;;21.25;37.18
75998;BME280;64685;48.762;44.822;2024-03-23T11:10:00;101201.19;;;19.79;39.77
75998;BME280;64685;48.762;44.822;2024-03-23T11:15:14;101205.47;;;19.69;39.43
75998;BME280;64685;48.762;44.822;2024-03-23T11:20:31;101198.34;;;19.41;39.32
75998;BME280;64685;48.762;44.822;2024-03-23T11:25:35;101208.09;;;17.76;41.96
75998;BME280;64685;48.762;44.822;2024-03-23T11:30:37;101185.88;;;16.27;46.23
75998;BME280;64685;48.762;44.822;2024-03-23T11:35:43;101191.13;;;15.84;48.02
75998;BME280;64685;48.762;44.822;2024-03-23T11:40:47;101195.69;;;15.77;48.16
75998;BME280;64685;48.762;44.822;2024-03-23T11:45:53;101189.41;;;15.39;50.44
75998;BME280;64685;48.762;44.822;2024-03-23T11:50:57;101189.16;;;14.74;56.03
75998;BME280;64685;48.762;44.822;2024-03-23T11:56:00;101188.19;;;14.70;55.44
75998;BME280;64685;48.762;44.822;2024-03-23T12:01:10;101181.75;;;14.69;55.59
75998;BME280;64685;48.762;44.822;2024-03-23T12:06:12;101182.72;;;14.36;57.99
75998;BME280;64685;48.762;44.822;2024-03-23T12:11:21;101193.38;;;14.22;59.53
75998;BME280;64685;48.762;44.822;2024-03-23T12:16:25;101185.50;;;13.81;63.98
75998;BME280;64685;48.762;44.822;2024-03-23T12:21:29;101168.53;;;13.69;65.95
75998;BME280;64685;48.762;44.822;2024-03-23T12:26:31;101162.72;;;13.83;65.38
75998;BME280;64685;48.762;44.822;2024-03-23T12:31:34;101178.63;;;13.53;67.60
75998;BME280;64685;48.762;44.822;2024-03-23T12:36:36;101177.13;;;13.05;72.96
75998;BME280;64685;48.762;44.822;2024-03-23T12:41:38;101177.41;;;12.87;75.03
75998;BME280;64685;48.762;44.822;2024-03-23T12:46:44;101165.16;;;12.57;77.92
75998;BME280;64685;48.762;44.822;2024-03-23T12:51:57;101170.50;;;12.37;79.76
75998;BME280;64685;48.762;44.822;2024-03-23T12:56:59;101170.88;;;12.44;79.70
75998;BME280;64685;48.762;44.822;2024-03-23T13:02:02;101175.16;;;12.41;78.85
75998;BME280;64685;48.762;44.822;2024-03-23T13:07:04;101166.19;;;12.31;79.52
75998;BME280;64685;48.762;44.822;2024-03-23T13:12:07;101172.66;;;12.40;78.87
75998;BME280;64685;48.762;44.822;2024-03-23T13:17:09;101163.88;;;12.24;80.31
75998;BME280;64685;48.762;44.822;2024-03-23T13:22:12;101162.97;;;12.07;86.40
75998;BME280;64685;48.762;44.822;2024-03-23T13:27:14;101174.50;;;11.83;90.42
75998;BME280;64685;48.762;44.822;2024-03-23T13:32:16;101166.16;;;11.92;89.83
75998;BME280;64685;48.762;44.822;2024-03-23T13:37:19;101167.25;;;11.82;91.05
75998;BME280;64685;48.762;44.822;2024-03-23T13:42:21;101174.09;;;11.68;94.34
75998;BME280;64685;48.762;44.822;2024-03-23T13:47:27;101177.19;;;11.66;94.08
75998;BME280;64685;48.762;44.822;2024-03-23T13:52:30;101176.78;;;11.37;98.41
75998;BME280;64685;48.762;44.822;2024-03-23T13:57:33;101170.56;;;11.40;98.91
75998;BME280;64685;48.762;44.822;2024-03-23T14:02:35;101182.88;;;11.17;100.00
75998;BME280;64685;48.762;44.822;2024-03-23T14:07:38;101171.78;;;10.90;100.00
75998;BME280;64685;48.762;44.822;2024-03-23T14:12:40;101178.09;;;10.82;100.00
75998;BME280;64685;48.762;44.822;2024-03-23T14:17:43;101185.59;;;10.60;100.00
75998;BME280;64685;48.762;44.822;2024-03-23T14:22:45;101185.09;;;10.58;100.00
75998;BME280;64685;48.762;44.822;2024-03-23T14:27:48;101191.47;;;10.45;100.00
75998;BME280;64685;48.762;44.822;2024-03-23T14:32:50;101177.41;;;10.23;100.00
75998;BME280;64685;48.762;44.822;2024-03-23T14:37:53;101191.63;;;9.94;100.00
75998;BME280;64685;48.762;44.822;2024-03-23T14:42:55;101193.56;;;9.80;100.00
75998;BME280;64685;48.762;44.822;2024-03-23T14:47:58;101213.91;;;9.81;100.00
75998;BME280;64685;48.762;44.822;2024-03-23T14:53:00;101205.66;;;9.57;100.00
75998;BME280;64685;48.762;44.822;2024-03-23T14:58:03;101217.16;;;9.37;100.00
75998;BME280;64685;48.762;44.822;2024-03-23T15:03:05;101209.66;;;9.01;100.00
75998;BME280;64685;48.762;44.822;2024-03-23T15:08:08;101203.38;;;8.90;100.00
75998;BME280;64685;48.762;44.822;2024-03-23T15:13:10;101197.16;;;8.98;100.00
75998;BME280;64685;48.762;44.822;2024-03-23T15:18:14;101190.66;;;8.84;100.00
75998;BME280;64685;48.762;44.822;2024-03-23T15:23:27;101219.81;;;8.68;100.00
75998;BME280;64685;48.762;44.822;2024-03-23T15:28:30;101204.09;;;8.35;100.00
75998;BME280;64685;48.762;44.822;2024-03-23T15:33:51;101208.28;;;8.09;100.00
75998;BME280;64685;48.762;44.822;2024-03-23T15:38:54;101207.91;;;7.92;100.00
75998;BME280;64685;48.762;44.822;2024-03-23T15:43:57;101215.16;;;7.88;100.00
75998;BME280;64685;48.762;44.822;2024-03-23T15:48:59;101216.94;;;7.79;100.00
75998;BME280;64685;48.762;44.822;2024-03-23T15:54:02;101219.31;;;7.62;100.00
75998;BME280;64685;48.762;44.822;2024-03-23T15:59:05;101215.78;;;7.52;100.00
75998;BME280;64685;48.762;44.822;2024-03-23T16:04:08;101226.69;;;7.43;100.00
75998;BME280;64685;48.762;44.822;2024-03-23T16:09:10;101240.34;;;7.40;100.00
75998;BME280;64685;48.762;44.822;2024-03-23T16:14:13;101244.53;;;7.37;100.00
75998;BME280;64685;48.762;44.822;2024-03-23T16:19:15;101264.78;;;7.43;100.00
75998;BME280;64685;48.762;44.822;2024-03-23T16:24:18;101280.38;;;7.34;100.00
75998;BME280;64685;48.762;44.822;2024-03-23T16:29:21;101288.97;;;7.37;100.00
75998;BME280;64685;48.762;44.822;2024-03-23T16:34:23;101292.63;;;7.33;100.00
75998;BME280;64685;48.762;44.822;2024-03-23T16:39:26;101289.06;;;7.22;100.00
75998;BME280;64685;48.762;44.822;2024-03-23T16:44:28;101289.00;;;7.32;100.00
75998;BME280;64685;48.762;44.822;2024-03-23T16:49:31;101308.72;;;7.31;100.00
75998;BME280;64685;48.762;44.822;2024-03-23T16:54:34;101306.50;;;7.38;100.00
75998;BME280;64685;48.762;44.822;2024-03-23T16:59:36;101295.97;;;7.30;100.00
75998;BME280;64685;48.762;44.822;2024-03-23T17:04:39;101296.22;;;7.33;100.00
75998;BME280;64685;48.762;44.822;2024-03-23T17:09:47;101299.59;;;7.30;100.00
75998;BME280;64685;48.762;44.822;2024-03-23T17:14:50;101289.91;;;7.23;100.00
75998;BME280;64685;48.762;44.822;2024-03-23T17:19:59;101293.56;;;7.18;100.00
75998;BME280;64685;48.762;44.822;2024-03-23T17:25:06;101299.16;;;7.08;100.00
75998;BME280;64685;48.762;44.822;2024-03-23T17:30:08;101288.59;;;7.10;100.00
75998;BME280;64685;48.762;44.822;2024-03-23T17:35:13;101298.28;;;7.13;100.00
75998;BME280;64685;48.762;44.822;2024-03-23T17:40:15;101299.72;;;7.05;100.00
75998;BME280;64685;48.762;44.822;2024-03-23T17:45:19;101316.94;;;7.07;100.00
75998;BME280;64685;48.762;44.822;2024-03-23T17:50:21;101311.94;;;7.04;100.00
75998;BME280;64685;48.762;44.822;2024-03-23T17:55:29;101290.63;;;6.95;100.00
75998;BME280;64685;48.762;44.822;2024-03-23T18:00:31;101295.31;;;6.99;100.00
75998;BME280;64685;48.762;44.822;2024-03-23T18:05:34;101275.81;;;7.09;100.00
75998;BME280;64685;48.762;44.822;2024-03-23T18:10:36;101289.50;;;6.96;100.00
75998;BME280;64685;48.762;44.822;2024-03-23T18:15:39;101297.25;;;7.04;100.00
75998;BME280;64685;48.762;44.822;2024-03-23T18:20:41;101292.28;;;6.96;100.00
75998;BME280;64685;48.762;44.822;2024-03-23T18:25:57;101275.13;;;6.79;100.00
75998;BME280;64685;48.762;44.822;2024-03-23T18:31:00;101270.00;;;6.47;100.00
75998;BME280;64685;48.762;44.822;2024-03-23T18:36:04;101257.88;;;6.18;100.00
75998;BME280;64685;48.762;44.822;2024-03-23T18:41:06;101266.22;;;6.03;100.00
75998;BME280;64685;48.762;44.822;2024-03-23T18:46:09;101252.66;;;5.92;100.00
75998;BME280;64685;48.762;44.822;2024-03-23T18:51:11;101272.88;;;5.87;100.00
75998;BME280;64685;48.762;44.822;2024-03-23T18:56:15;101272.88;;;5.72;100.00
75998;BME280;64685;48.762;44.822;2024-03-23T19:01:18;101276.75;;;5.66;100.00
75998;BME280;64685;48.762;44.822;2024-03-23T19:06:24;101278.69;;;5.61;100.00
75998;BME280;64685;48.762;44.822;2024-03-23T19:11:29;101288.97;;;5.60;100.00
75998;BME280;64685;48.762;44.822;2024-03-23T19:16:34;101283.41;;;5.55;100.00
75998;BME280;64685;48.762;44.822;2024-03-23T19:21:36;101284.53;;;5.49;100.00
75998;BME280;64685;48.762;44.822;2024-03-23T19:26:41;101272.31;;;5.40;100.00
75998;BME280;64685;48.762;44.822;2024-03-23T19:31:46;101272.59;;;5.44;100.00
75998;BME280;64685;48.762;44.822;2024-03-23T19:36:49;101285.59;;;5.48;100.00
75998;BME280;64685;48.762;44.822;2024-03-23T19:41:55;101288.38;;;5.58;100.00
75998;BME280;64685;48.762;44.822;2024-03-23T19:47:00;101277.56;;;5.67;100.00
75998;BME280;64685;48.762;44.822;2024-03-23T19:52:04;101267.34;;;5.67;100.00
75998;BME280;64685;48.762;44.822;2024-03-23T19:57:09;101275.34;;;5.79;100.00
75998;BME280;64685;48.762;44.822;2024-03-23T20:02:12;101269.03;;;5.88;100.00
75998;BME280;64685;48.762;44.822;2024-03-23T20:07:15;101271.22;;;6.11;100.00
75998;BME280;64685;48.762;44.822;2024-03-23T20:12:21;101262.84;;;6.26;100.00
75998;BME280;64685;48.762;44.822;2024-03-23T20:17:29;101255.03;;;6.43;100.00
75998;BME280;64685;48.762;44.822;2024-03-23T20:22:32;101262.81;;;6.41;100.00
75998;BME280;64685;48.762;44.822;2024-03-23T20:27:35;101253.06;;;6.49;100.00
75998;BME280;64685;48.762;44.822;2024-03-23T20:32:40;101254.66;;;6.70;100.00
75998;BME280;64685;48.762;44.822;2024-03-23T20:37:47;101252.94;;;6.79;100.00
75998;BME280;64685;48.762;44.822;2024-03-23T20:42:51;101254.84;;;6.83;100.00
75998;BME280;64685;48.762;44.822;2024-03-23T20:47:54;101230.19;;;6.77;100.00
75998;BME280;64685;48.762;44.822;2024-03-23T20:52:59;101233.16;;;6.95;100.00
75998;BME280;64685;48.762;44.822;2024-03-23T20:58:03;101233.63;;;7.07;100.00
75998;BME280;64685;48.762;44.822;2024-03-23T21:03:08;101215.03;;;7.03;100.00
75998;BME280;64685;48.762;44.822;2024-03-23T21:08:11;101226.94;;;7.08;100.00
75998;BME280;64685;48.762;44.822;2024-03-23T21:13:17;101225.81;;;7.14;100.00
75998;BME280;64685;48.762;44.822;2024-03-23T21:18:20;101234.09;;;7.19;100.00
75998;BME280;64685;48.762;44.822;2024-03-23T21:23:24;101228.25;;;7.21;100.00
75998;BME280;64685;48.762;44.822;2024-03-23T21:28:27;101228.25;;;7.21;100.00
75998;BME280;64685;48.762;44.822;2024-03-23T21:33:30;101228.00;;;7.17;100.00
75998;BME280;64685;48.762;44.822;2024-03-23T21:38:33;101216.47;;;7.00;100.00
75998;BME280;64685;48.762;44.822;2024-03-23T21:43:36;101223.47;;;6.88;100.00
75998;BME280;64685;48.762;44.822;2024-03-23T21:48:38;101230.44;;;6.80;100.00
75998;BME280;64685;48.762;44.822;2024-03-23T21:53:45;101221.63;;;6.73;100.00
75998;BME280;64685;48.762;44.822;2024-03-23T21:58:48;101230.78;;;6.69;100.00
75998;BME280;64685;48.762;44.822;2024-03-23T22:03:51;101201.38;;;6.68;100.00
75998;BME280;64685;48.762;44.822;2024-03-23T22:08:56;101221.50;;;6.88;100.00
75998;BME280;64685;48.762;44.822;2024-03-23T22:13:59;101213.41;;;6.97;100.00
75998;BME280;64685;48.762;44.822;2024-03-23T22:19:04;101198.50;;;6.83;100.00
75998;BME280;64685;48.762;44.822;2024-03-23T22:24:10;101202.41;;;6.82;100.00
75998;BME280;64685;48.762;44.822;2024-03-23T22:29:12;101205.97;;;6.87;100.00
75998;BME280;64685;48.762;44.822;2024-03-23T22:34:15;101200.16;;;6.89;100.00
75998;BME280;64685;48.762;44.822;2024-03-23T22:39:17;101215.69;;;6.90;100.00
75998;BME280;64685;48.762;44.822;2024-03-23T22:44:22;101205.50;;;6.70;100.00
75998;BME280;64685;48.762;44.822;2024-03-23T22:49:24;101203.88;;;6.64;100.00
75998;BME280;64685;48.762;44.822;2024-03-23T22:54:27;101215.56;;;6.61;100.00
75998;BME280;64685;48.762;44.822;2024-03-23T22:59:29;101209.00;;;6.32;100.00
75998;BME280;64685;48.762;44.822;2024-03-23T23:04:34;101206.22;;;6.37;100.00
75998;BME280;64685;48.762;44.822;2024-03-23T23:09:43;101191.31;;;6.28;100.00
75998;BME280;64685;48.762;44.822;2024-03-23T23:14:45;101201.28;;;6.29;100.00
75998;BME280;64685;48.762;44.822;2024-03-23T23:19:48;101194.91;;;6.24;100.00
75998;BME280;64685;48.762;44.822;2024-03-23T23:24:55;101190.19;;;6.24;100.00
75998;BME280;64685;48.762;44.822;2024-03-23T23:29:57;101207.59;;;6.40;100.00
75998;BME280;64685;48.762;44.822;2024-03-23T23:35:03;101190.69;;;6.41;100.00
75998;BME280;64685;48.762;44.822;2024-03-23T23:40:06;101208.22;;;6.27;100.00
75998;BME280;64685;48.762;44.822;2024-03-23T23:45:16;101202.94;;;6.25;100.00
75998;BME280;64685;48.762;44.822;2024-03-23T23:50:20;101200.75;;;6.22;100.00
75998;BME280;64685;48.762;44.822;2024-03-23T23:55:22;101185.75;;;6.28;100.00
